sensor_id;sensor_type;location;lat;lon;timestamp;P1;durP1;ratioP1;P2;durP2;ratioP2
80707;SDS011;70222;49.204;-122.940;2023-07-20T00:02:20;3.90;;;2.30;;
80707;SDS011;70222;49.204;-122.940;2023-07-20T00:04:46;2.13;;;1.83;;
80707;SDS011;70222;49.204;-122.940;2023-07-20T00:09:37;1.90;;;1.70;;
80707;SDS011;70222;49.204;-122.940;2023-07-20T00:14:29;2.15;;;1.80;;
80707;SDS011;70222;49.204;-122.940;2023-07-20T00:16:57;1.77;;;1.60;;
80707;SDS011;70222;49.204;-122.940;2023-07-20T00:21:49;2.25;;;1.60;;
80707;SDS011;70222;49.204;-122.940;2023-07-20T00:26:41;2.10;;;1.60;;
80707;SDS011;70222;49.204;-122.940;2023-07-20T00:29:07;4.00;;;1.75;;
80707;SDS011;70222;49.204;-122.940;2023-07-20T00:34:00;2.80;;;1.73;;
80707;SDS011;70222;49.204;-122.940;2023-07-20T00:36:26;2.30;;;1.70;;
80707;SDS011;70222;49.204;-122.940;2023-07-20T00:41:18;1.98;;;1.73;;
80707;SDS011;70222;49.204;-122.940;2023-07-20T00:46:10;2.15;;;1.70;;
80707;SDS011;70222;49.204;-122.940;2023-07-20T00:48:36;4.18;;;2.10;;
80707;SDS011;70222;49.204;-122.940;2023-07-20T00:53:28;2.72;;;1.83;;
80707;SDS011;70222;49.204;-122.940;2023-07-20T00:58:20;2.88;;;1.70;;
80707;SDS011;70222;49.204;-122.940;2023-07-20T01:03:12;2.70;;;1.90;;
80707;SDS011;70222;49.204;-122.940;2023-07-20T01:05:43;2.90;;;1.70;;
80707;SDS011;70222;49.204;-122.940;2023-07-20T01:08:40;3.88;;;1.77;;
80707;SDS011;70222;49.204;-122.940;2023-07-20T01:11:21;2.55;;;2.00;;
80707;SDS011;70222;49.204;-122.940;2023-07-20T01:13:53;2.88;;;2.38;;
80707;SDS011;70222;49.204;-122.940;2023-07-20T01:16:19;2.35;;;1.65;;
80707;SDS011;70222;49.204;-122.940;2023-07-20T01:18:45;3.42;;;1.80;;
80707;SDS011;70222;49.204;-122.940;2023-07-20T01:21:13;2.10;;;1.70;;
80707;SDS011;70222;49.204;-122.940;2023-07-20T01:23:52;2.70;;;1.70;;
80707;SDS011;70222;49.204;-122.940;2023-07-20T01:29:29;5.38;;;2.03;;
80707;SDS011;70222;49.204;-122.940;2023-07-20T01:32:02;2.47;;;2.10;;
80707;SDS011;70222;49.204;-122.940;2023-07-20T01:34:32;3.17;;;1.80;;
80707;SDS011;70222;49.204;-122.940;2023-07-20T01:37:00;2.40;;;1.63;;
80707;SDS011;70222;49.204;-122.940;2023-07-20T01:39:27;3.00;;;1.92;;
80707;SDS011;70222;49.204;-122.940;2023-07-20T01:41:53;3.67;;;2.00;;
80707;SDS011;70222;49.204;-122.940;2023-07-20T01:44:19;2.13;;;1.70;;
80707;SDS011;70222;49.204;-122.940;2023-07-20T01:46:45;3.65;;;1.90;;
80707;SDS011;70222;49.204;-122.940;2023-07-20T01:49:11;2.50;;;1.50;;
80707;SDS011;70222;49.204;-122.940;2023-07-20T01:51:37;3.97;;;1.60;;
80707;SDS011;70222;49.204;-122.940;2023-07-20T01:54:03;3.00;;;1.55;;
80707;SDS011;70222;49.204;-122.940;2023-07-20T01:56:30;2.80;;;2.00;;
80707;SDS011;70222;49.204;-122.940;2023-07-20T01:58:56;2.80;;;1.90;;
80707;SDS011;70222;49.204;-122.940;2023-07-20T02:01:22;2.05;;;1.67;;
80707;SDS011;70222;49.204;-122.940;2023-07-20T02:03:48;3.35;;;1.95;;
80707;SDS011;70222;49.204;-122.940;2023-07-20T02:06:14;3.22;;;1.90;;
80707;SDS011;70222;49.204;-122.940;2023-07-20T02:08:40;3.78;;;1.80;;
80707;SDS011;70222;49.204;-122.940;2023-07-20T02:11:06;2.95;;;1.90;;
80707;SDS011;70222;49.204;-122.940;2023-07-20T02:13:32;3.58;;;1.85;;
80707;SDS011;70222;49.204;-122.940;2023-07-20T02:15:58;5.75;;;1.95;;
80707;SDS011;70222;49.204;-122.940;2023-07-20T02:18:24;2.53;;;1.83;;
80707;SDS011;70222;49.204;-122.940;2023-07-20T02:20:52;3.25;;;1.80;;
80707;SDS011;70222;49.204;-122.940;2023-07-20T02:23:19;3.08;;;2.10;;
80707;SDS011;70222;49.204;-122.940;2023-07-20T02:25:45;3.22;;;1.95;;
80707;SDS011;70222;49.204;-122.940;2023-07-20T02:28:14;4.72;;;2.33;;
80707;SDS011;70222;49.204;-122.940;2023-07-20T02:30:40;4.18;;;2.10;;
80707;SDS011;70222;49.204;-122.940;2023-07-20T02:33:07;3.25;;;2.30;;
80707;SDS011;70222;49.204;-122.940;2023-07-20T02:35:34;3.00;;;1.92;;
80707;SDS011;70222;49.204;-122.940;2023-07-20T02:38:00;2.75;;;1.88;;
80707;SDS011;70222;49.204;-122.940;2023-07-20T02:40:26;2.90;;;2.08;;
80707;SDS011;70222;49.204;-122.940;2023-07-20T02:42:52;3.35;;;2.00;;
80707;SDS011;70222;49.204;-122.940;2023-07-20T02:45:18;2.80;;;2.25;;
80707;SDS011;70222;49.204;-122.940;2023-07-20T02:47:45;3.47;;;2.35;;
80707;SDS011;70222;49.204;-122.940;2023-07-20T02:50:11;3.63;;;2.10;;
80707;SDS011;70222;49.204;-122.940;2023-07-20T02:52:39;4.60;;;2.00;;
80707;SDS011;70222;49.204;-122.940;2023-07-20T02:55:05;3.45;;;2.03;;
80707;SDS011;70222;49.204;-122.940;2023-07-20T02:57:32;3.72;;;2.40;;
80707;SDS011;70222;49.204;-122.940;2023-07-20T02:59:58;3.40;;;2.30;;
80707;SDS011;70222;49.204;-122.940;2023-07-20T03:02:24;3.97;;;2.22;;
80707;SDS011;70222;49.204;-122.940;2023-07-20T03:04:50;4.32;;;2.30;;
80707;SDS011;70222;49.204;-122.940;2023-07-20T03:07:19;2.97;;;2.00;;
80707;SDS011;70222;49.204;-122.940;2023-07-20T03:09:45;3.15;;;2.10;;
80707;SDS011;70222;49.204;-122.940;2023-07-20T03:12:11;4.13;;;2.17;;
80707;SDS011;70222;49.204;-122.940;2023-07-20T03:14:37;4.72;;;2.00;;
80707;SDS011;70222;49.204;-122.940;2023-07-20T03:17:03;4.90;;;1.98;;
80707;SDS011;70222;49.204;-122.940;2023-07-20T03:19:30;6.10;;;2.10;;
80707;SDS011;70222;49.204;-122.940;2023-07-20T03:21:56;3.15;;;2.00;;
80707;SDS011;70222;49.204;-122.940;2023-07-20T03:24:22;3.13;;;2.10;;
80707;SDS011;70222;49.204;-122.940;2023-07-20T03:29:14;2.70;;;1.98;;
80707;SDS011;70222;49.204;-122.940;2023-07-20T03:31:41;4.38;;;2.10;;
80707;SDS011;70222;49.204;-122.940;2023-07-20T03:34:07;3.97;;;2.10;;
80707;SDS011;70222;49.204;-122.940;2023-07-20T03:39:01;4.32;;;2.20;;
80707;SDS011;70222;49.204;-122.940;2023-07-20T03:41:28;5.18;;;3.00;;
80707;SDS011;70222;49.204;-122.940;2023-07-20T03:43:54;4.32;;;2.25;;
80707;SDS011;70222;49.204;-122.940;2023-07-20T03:46:20;4.10;;;2.03;;
80707;SDS011;70222;49.204;-122.940;2023-07-20T03:48:46;4.22;;;2.22;;
80707;SDS011;70222;49.204;-122.940;2023-07-20T03:51:13;2.88;;;2.13;;
80707;SDS011;70222;49.204;-122.940;2023-07-20T03:53:39;4.93;;;2.30;;
80707;SDS011;70222;49.204;-122.940;2023-07-20T03:56:05;4.55;;;1.90;;
80707;SDS011;70222;49.204;-122.940;2023-07-20T03:58:31;3.38;;;2.00;;
80707;SDS011;70222;49.204;-122.940;2023-07-20T04:00:57;4.05;;;2.03;;
80707;SDS011;70222;49.204;-122.940;2023-07-20T04:03:23;6.15;;;2.30;;
80707;SDS011;70222;49.204;-122.940;2023-07-20T04:05:52;4.70;;;2.17;;
80707;SDS011;70222;49.204;-122.940;2023-07-20T04:08:24;4.05;;;2.40;;
80707;SDS011;70222;49.204;-122.940;2023-07-20T04:10:51;4.05;;;2.30;;
80707;SDS011;70222;49.204;-122.940;2023-07-20T04:13:17;5.90;;;2.38;;
80707;SDS011;70222;49.204;-122.940;2023-07-20T04:15:44;3.35;;;2.00;;
80707;SDS011;70222;49.204;-122.940;2023-07-20T04:18:10;3.85;;;2.10;;
80707;SDS011;70222;49.204;-122.940;2023-07-20T04:20:36;3.13;;;2.00;;
80707;SDS011;70222;49.204;-122.940;2023-07-20T04:23:02;3.20;;;1.95;;
80707;SDS011;70222;49.204;-122.940;2023-07-20T04:25:28;3.72;;;2.15;;
80707;SDS011;70222;49.204;-122.940;2023-07-20T04:27:55;3.95;;;2.30;;
80707;SDS011;70222;49.204;-122.940;2023-07-20T04:30:22;6.07;;;2.10;;
80707;SDS011;70222;49.204;-122.940;2023-07-20T04:32:48;4.40;;;2.38;;
80707;SDS011;70222;49.204;-122.940;2023-07-20T04:38:11;4.00;;;2.50;;
80707;SDS011;70222;49.204;-122.940;2023-07-20T04:40:37;3.97;;;2.58;;
80707;SDS011;70222;49.204;-122.940;2023-07-20T04:43:03;4.10;;;2.60;;
80707;SDS011;70222;49.204;-122.940;2023-07-20T04:45:29;6.25;;;3.10;;
80707;SDS011;70222;49.204;-122.940;2023-07-20T04:47:55;5.05;;;3.03;;
80707;SDS011;70222;49.204;-122.940;2023-07-20T04:52:50;4.80;;;2.65;;
80707;SDS011;70222;49.204;-122.940;2023-07-20T04:55:17;4.70;;;2.75;;
80707;SDS011;70222;49.204;-122.940;2023-07-20T04:57:43;4.43;;;2.00;;
80707;SDS011;70222;49.204;-122.940;2023-07-20T05:00:09;4.10;;;2.35;;
80707;SDS011;70222;49.204;-122.940;2023-07-20T05:02:39;3.85;;;2.47;;
80707;SDS011;70222;49.204;-122.940;2023-07-20T05:05:06;4.82;;;2.53;;
80707;SDS011;70222;49.204;-122.940;2023-07-20T05:07:32;3.28;;;2.00;;
80707;SDS011;70222;49.204;-122.940;2023-07-20T05:09:58;3.92;;;2.10;;
80707;SDS011;70222;49.204;-122.940;2023-07-20T05:12:24;3.30;;;2.40;;
80707;SDS011;70222;49.204;-122.940;2023-07-20T05:14:51;3.20;;;2.33;;
80707;SDS011;70222;49.204;-122.940;2023-07-20T05:17:17;3.35;;;2.10;;
80707;SDS011;70222;49.204;-122.940;2023-07-20T05:19:43;4.32;;;2.10;;
80707;SDS011;70222;49.204;-122.940;2023-07-20T05:22:09;3.40;;;2.15;;
80707;SDS011;70222;49.204;-122.940;2023-07-20T05:24:36;3.63;;;2.17;;
80707;SDS011;70222;49.204;-122.940;2023-07-20T05:27:02;3.97;;;2.13;;
80707;SDS011;70222;49.204;-122.940;2023-07-20T05:29:28;2.70;;;1.95;;
80707;SDS011;70222;49.204;-122.940;2023-07-20T05:31:54;3.13;;;2.10;;
80707;SDS011;70222;49.204;-122.940;2023-07-20T05:34:22;4.05;;;2.13;;
80707;SDS011;70222;49.204;-122.940;2023-07-20T05:36:48;4.65;;;2.17;;
80707;SDS011;70222;49.204;-122.940;2023-07-20T05:39:16;2.67;;;2.20;;
80707;SDS011;70222;49.204;-122.940;2023-07-20T05:41:43;4.65;;;2.28;;
80707;SDS011;70222;49.204;-122.940;2023-07-20T05:44:09;3.72;;;2.50;;
80707;SDS011;70222;49.204;-122.940;2023-07-20T05:46:35;2.95;;;2.00;;
80707;SDS011;70222;49.204;-122.940;2023-07-20T05:49:01;4.43;;;2.58;;
80707;SDS011;70222;49.204;-122.940;2023-07-20T05:51:27;3.92;;;2.33;;
80707;SDS011;70222;49.204;-122.940;2023-07-20T05:53:53;3.10;;;2.25;;
80707;SDS011;70222;49.204;-122.940;2023-07-20T05:56:20;3.22;;;2.22;;
80707;SDS011;70222;49.204;-122.940;2023-07-20T05:58:46;5.40;;;2.38;;
80707;SDS011;70222;49.204;-122.940;2023-07-20T06:01:12;4.13;;;2.40;;
80707;SDS011;70222;49.204;-122.940;2023-07-20T06:03:38;3.65;;;2.50;;
80707;SDS011;70222;49.204;-122.940;2023-07-20T06:06:04;3.67;;;2.70;;
80707;SDS011;70222;49.204;-122.940;2023-07-20T06:08:31;8.10;;;2.65;;
80707;SDS011;70222;49.204;-122.940;2023-07-20T06:10:57;4.90;;;2.50;;
80707;SDS011;70222;49.204;-122.940;2023-07-20T06:13:23;4.57;;;3.22;;
80707;SDS011;70222;49.204;-122.940;2023-07-20T06:15:50;4.25;;;2.60;;
80707;SDS011;70222;49.204;-122.940;2023-07-20T06:18:16;4.82;;;2.75;;
80707;SDS011;70222;49.204;-122.940;2023-07-20T06:20:42;3.78;;;2.85;;
80707;SDS011;70222;49.204;-122.940;2023-07-20T06:23:10;5.38;;;3.10;;
80707;SDS011;70222;49.204;-122.940;2023-07-20T06:25:36;3.60;;;2.75;;
80707;SDS011;70222;49.204;-122.940;2023-07-20T06:28:02;5.15;;;2.78;;
80707;SDS011;70222;49.204;-122.940;2023-07-20T06:30:30;4.07;;;2.72;;
80707;SDS011;70222;49.204;-122.940;2023-07-20T06:32:56;4.95;;;3.17;;
80707;SDS011;70222;49.204;-122.940;2023-07-20T06:35:22;3.97;;;2.65;;
80707;SDS011;70222;49.204;-122.940;2023-07-20T06:37:48;5.65;;;3.08;;
80707;SDS011;70222;49.204;-122.940;2023-07-20T06:40:15;3.83;;;2.30;;
80707;SDS011;70222;49.204;-122.940;2023-07-20T06:42:41;5.20;;;2.92;;
80707;SDS011;70222;49.204;-122.940;2023-07-20T06:45:07;4.25;;;2.75;;
80707;SDS011;70222;49.204;-122.940;2023-07-20T06:47:34;4.40;;;2.95;;
80707;SDS011;70222;49.204;-122.940;2023-07-20T06:50:00;5.82;;;2.70;;
80707;SDS011;70222;49.204;-122.940;2023-07-20T06:52:26;4.70;;;2.50;;
80707;SDS011;70222;49.204;-122.940;2023-07-20T06:54:52;3.80;;;2.38;;
80707;SDS011;70222;49.204;-122.940;2023-07-20T06:57:18;4.00;;;2.70;;
80707;SDS011;70222;49.204;-122.940;2023-07-20T06:59:46;5.78;;;3.17;;
80707;SDS011;70222;49.204;-122.940;2023-07-20T07:02:12;5.57;;;2.40;;
80707;SDS011;70222;49.204;-122.940;2023-07-20T07:04:39;4.32;;;2.55;;
80707;SDS011;70222;49.204;-122.940;2023-07-20T07:07:05;4.07;;;2.40;;
80707;SDS011;70222;49.204;-122.940;2023-07-20T07:09:31;4.38;;;2.88;;
80707;SDS011;70222;49.204;-122.940;2023-07-20T07:11:57;3.92;;;2.58;;
80707;SDS011;70222;49.204;-122.940;2023-07-20T07:14:24;6.75;;;3.00;;
80707;SDS011;70222;49.204;-122.940;2023-07-20T07:16:50;4.32;;;2.88;;
80707;SDS011;70222;49.204;-122.940;2023-07-20T07:19:16;5.40;;;2.42;;
80707;SDS011;70222;49.204;-122.940;2023-07-20T07:21:42;4.80;;;2.80;;
80707;SDS011;70222;49.204;-122.940;2023-07-20T07:24:08;6.35;;;3.15;;
80707;SDS011;70222;49.204;-122.940;2023-07-20T07:26:35;6.32;;;3.47;;
80707;SDS011;70222;49.204;-122.940;2023-07-20T07:29:02;4.43;;;2.42;;
80707;SDS011;70222;49.204;-122.940;2023-07-20T07:33:56;4.22;;;2.35;;
80707;SDS011;70222;49.204;-122.940;2023-07-20T07:36:22;4.05;;;2.60;;
80707;SDS011;70222;49.204;-122.940;2023-07-20T07:38:50;5.50;;;2.35;;
80707;SDS011;70222;49.204;-122.940;2023-07-20T07:41:16;5.22;;;2.88;;
80707;SDS011;70222;49.204;-122.940;2023-07-20T07:43:45;7.78;;;2.88;;
80707;SDS011;70222;49.204;-122.940;2023-07-20T07:46:11;5.93;;;2.58;;
80707;SDS011;70222;49.204;-122.940;2023-07-20T07:48:38;6.75;;;3.35;;
80707;SDS011;70222;49.204;-122.940;2023-07-20T07:51:05;5.03;;;2.88;;
80707;SDS011;70222;49.204;-122.940;2023-07-20T07:53:31;4.13;;;2.70;;
80707;SDS011;70222;49.204;-122.940;2023-07-20T07:55:58;3.80;;;2.83;;
80707;SDS011;70222;49.204;-122.940;2023-07-20T07:58:25;3.80;;;2.60;;
80707;SDS011;70222;49.204;-122.940;2023-07-20T08:00:51;5.43;;;2.88;;
80707;SDS011;70222;49.204;-122.940;2023-07-20T08:03:17;3.65;;;2.58;;
80707;SDS011;70222;49.204;-122.940;2023-07-20T08:05:44;5.97;;;3.47;;
80707;SDS011;70222;49.204;-122.940;2023-07-20T08:08:10;4.15;;;2.60;;
80707;SDS011;70222;49.204;-122.940;2023-07-20T08:10:36;4.18;;;2.90;;
80707;SDS011;70222;49.204;-122.940;2023-07-20T08:13:02;2.83;;;2.15;;
80707;SDS011;70222;49.204;-122.940;2023-07-20T08:15:28;4.50;;;2.70;;
80707;SDS011;70222;49.204;-122.940;2023-07-20T08:17:54;3.97;;;2.55;;
80707;SDS011;70222;49.204;-122.940;2023-07-20T08:20:22;3.10;;;2.17;;
80707;SDS011;70222;49.204;-122.940;2023-07-20T08:22:52;4.55;;;2.42;;
80707;SDS011;70222;49.204;-122.940;2023-07-20T08:25:20;4.60;;;2.35;;
80707;SDS011;70222;49.204;-122.940;2023-07-20T08:27:46;3.20;;;1.90;;
80707;SDS011;70222;49.204;-122.940;2023-07-20T08:30:12;4.30;;;2.22;;
80707;SDS011;70222;49.204;-122.940;2023-07-20T08:32:40;3.08;;;2.10;;
80707;SDS011;70222;49.204;-122.940;2023-07-20T08:35:06;3.30;;;2.25;;
80707;SDS011;70222;49.204;-122.940;2023-07-20T08:37:33;3.33;;;2.13;;
80707;SDS011;70222;49.204;-122.940;2023-07-20T08:39:59;4.40;;;2.38;;
80707;SDS011;70222;49.204;-122.940;2023-07-20T08:42:26;4.03;;;2.40;;
80707;SDS011;70222;49.204;-122.940;2023-07-20T08:47:18;3.58;;;1.90;;
80707;SDS011;70222;49.204;-122.940;2023-07-20T08:49:48;3.60;;;2.00;;
80707;SDS011;70222;49.204;-122.940;2023-07-20T08:52:14;4.93;;;2.20;;
80707;SDS011;70222;49.204;-122.940;2023-07-20T08:54:41;3.17;;;2.03;;
80707;SDS011;70222;49.204;-122.940;2023-07-20T08:57:07;3.60;;;2.15;;
80707;SDS011;70222;49.204;-122.940;2023-07-20T08:59:34;3.08;;;2.08;;
80707;SDS011;70222;49.204;-122.940;2023-07-20T09:02:02;3.33;;;2.10;;
80707;SDS011;70222;49.204;-122.940;2023-07-20T09:04:30;4.05;;;2.00;;
80707;SDS011;70222;49.204;-122.940;2023-07-20T09:06:57;3.22;;;2.08;;
80707;SDS011;70222;49.204;-122.940;2023-07-20T09:09:23;3.67;;;2.15;;
80707;SDS011;70222;49.204;-122.940;2023-07-20T09:11:50;3.83;;;2.10;;
80707;SDS011;70222;49.204;-122.940;2023-07-20T09:14:16;4.15;;;1.90;;
80707;SDS011;70222;49.204;-122.940;2023-07-20T09:16:49;3.78;;;2.08;;
80707;SDS011;70222;49.204;-122.940;2023-07-20T09:19:18;4.68;;;2.25;;
80707;SDS011;70222;49.204;-122.940;2023-07-20T09:21:53;4.82;;;1.95;;
80707;SDS011;70222;49.204;-122.940;2023-07-20T09:24:19;3.75;;;2.08;;
80707;SDS011;70222;49.204;-122.940;2023-07-20T09:29:19;4.05;;;2.17;;
80707;SDS011;70222;49.204;-122.940;2023-07-20T09:32:01;2.75;;;2.00;;
80707;SDS011;70222;49.204;-122.940;2023-07-20T09:34:30;3.83;;;1.80;;
80707;SDS011;70222;49.204;-122.940;2023-07-20T09:36:59;3.35;;;2.05;;
80707;SDS011;70222;49.204;-122.940;2023-07-20T09:39:28;4.82;;;2.47;;
80707;SDS011;70222;49.204;-122.940;2023-07-20T09:41:55;4.00;;;2.38;;
80707;SDS011;70222;49.204;-122.940;2023-07-20T09:44:27;4.93;;;2.67;;
80707;SDS011;70222;49.204;-122.940;2023-07-20T09:46:53;2.88;;;1.85;;
80707;SDS011;70222;49.204;-122.940;2023-07-20T09:49:21;3.90;;;1.95;;
80707;SDS011;70222;49.204;-122.940;2023-07-20T09:51:47;3.53;;;1.92;;
80707;SDS011;70222;49.204;-122.940;2023-07-20T09:54:14;3.85;;;2.15;;
80707;SDS011;70222;49.204;-122.940;2023-07-20T09:56:40;3.35;;;2.20;;
80707;SDS011;70222;49.204;-122.940;2023-07-20T10:02:33;2.95;;;1.92;;
80707;SDS011;70222;49.204;-122.940;2023-07-20T10:05:02;4.63;;;2.45;;
80707;SDS011;70222;49.204;-122.940;2023-07-20T10:07:29;3.55;;;2.30;;
80707;SDS011;70222;49.204;-122.940;2023-07-20T10:09:59;3.05;;;2.22;;
80707;SDS011;70222;49.204;-122.940;2023-07-20T10:12:27;3.10;;;2.22;;
80707;SDS011;70222;49.204;-122.940;2023-07-20T10:14:59;2.97;;;1.90;;
80707;SDS011;70222;49.204;-122.940;2023-07-20T10:17:33;3.00;;;2.33;;
80707;SDS011;70222;49.204;-122.940;2023-07-20T10:20:03;4.43;;;2.10;;
80707;SDS011;70222;49.204;-122.940;2023-07-20T10:22:31;3.20;;;2.03;;
80707;SDS011;70222;49.204;-122.940;2023-07-20T10:25:01;5.28;;;2.15;;
80707;SDS011;70222;49.204;-122.940;2023-07-20T10:27:29;3.40;;;2.20;;
80707;SDS011;70222;49.204;-122.940;2023-07-20T10:29:56;5.95;;;2.50;;
80707;SDS011;70222;49.204;-122.940;2023-07-20T10:32:24;4.15;;;2.13;;
80707;SDS011;70222;49.204;-122.940;2023-07-20T10:34:51;3.25;;;2.33;;
80707;SDS011;70222;49.204;-122.940;2023-07-20T10:40:41;4.47;;;2.10;;
80707;SDS011;70222;49.204;-122.940;2023-07-20T10:43:07;2.50;;;1.98;;
80707;SDS011;70222;49.204;-122.940;2023-07-20T10:45:52;4.25;;;2.33;;
80707;SDS011;70222;49.204;-122.940;2023-07-20T10:53:39;3.33;;;2.33;;
80707;SDS011;70222;49.204;-122.940;2023-07-20T10:56:11;5.45;;;2.75;;
80707;SDS011;70222;49.204;-122.940;2023-07-20T10:58:41;3.10;;;2.15;;
80707;SDS011;70222;49.204;-122.940;2023-07-20T11:01:08;3.25;;;2.45;;
80707;SDS011;70222;49.204;-122.940;2023-07-20T11:03:36;6.38;;;2.50;;
80707;SDS011;70222;49.204;-122.940;2023-07-20T11:11:35;4.25;;;2.55;;
80707;SDS011;70222;49.204;-122.940;2023-07-20T11:14:06;6.80;;;2.42;;
80707;SDS011;70222;49.204;-122.940;2023-07-20T11:16:34;5.32;;;2.75;;
80707;SDS011;70222;49.204;-122.940;2023-07-20T11:19:01;3.28;;;2.30;;
80707;SDS011;70222;49.204;-122.940;2023-07-20T11:21:28;4.85;;;2.92;;
80707;SDS011;70222;49.204;-122.940;2023-07-20T11:26:21;5.22;;;2.50;;
80707;SDS011;70222;49.204;-122.940;2023-07-20T11:28:50;5.95;;;2.70;;
80707;SDS011;70222;49.204;-122.940;2023-07-20T11:31:18;4.43;;;2.58;;
80707;SDS011;70222;49.204;-122.940;2023-07-20T11:33:44;5.13;;;2.35;;
80707;SDS011;70222;49.204;-122.940;2023-07-20T11:38:42;4.75;;;2.67;;
80707;SDS011;70222;49.204;-122.940;2023-07-20T11:41:11;4.32;;;2.90;;
80707;SDS011;70222;49.204;-122.940;2023-07-20T11:43:38;6.30;;;2.63;;
80707;SDS011;70222;49.204;-122.940;2023-07-20T11:46:05;3.70;;;2.60;;
80707;SDS011;70222;49.204;-122.940;2023-07-20T11:48:31;5.13;;;2.55;;
80707;SDS011;70222;49.204;-122.940;2023-07-20T11:50:57;4.78;;;3.08;;
80707;SDS011;70222;49.204;-122.940;2023-07-20T11:53:24;5.70;;;2.78;;
80707;SDS011;70222;49.204;-122.940;2023-07-20T11:55:51;5.90;;;2.67;;
80707;SDS011;70222;49.204;-122.940;2023-07-20T11:58:18;5.40;;;3.00;;
80707;SDS011;70222;49.204;-122.940;2023-07-20T12:00:44;4.75;;;2.72;;
80707;SDS011;70222;49.204;-122.940;2023-07-20T12:05:38;6.22;;;2.63;;
80707;SDS011;70222;49.204;-122.940;2023-07-20T12:08:04;3.95;;;2.63;;
80707;SDS011;70222;49.204;-122.940;2023-07-20T12:10:30;5.93;;;2.80;;
80707;SDS011;70222;49.204;-122.940;2023-07-20T12:13:02;3.80;;;2.63;;
80707;SDS011;70222;49.204;-122.940;2023-07-20T12:15:32;5.47;;;2.42;;
80707;SDS011;70222;49.204;-122.940;2023-07-20T12:18:01;5.03;;;2.70;;
80707;SDS011;70222;49.204;-122.940;2023-07-20T12:20:34;4.85;;;2.75;;
80707;SDS011;70222;49.204;-122.940;2023-07-20T12:23:09;5.10;;;2.60;;
80707;SDS011;70222;49.204;-122.940;2023-07-20T12:25:37;6.25;;;2.78;;
80707;SDS011;70222;49.204;-122.940;2023-07-20T12:28:11;7.00;;;3.38;;
80707;SDS011;70222;49.204;-122.940;2023-07-20T12:30:42;5.30;;;2.60;;
80707;SDS011;70222;49.204;-122.940;2023-07-20T12:33:09;4.35;;;2.45;;
80707;SDS011;70222;49.204;-122.940;2023-07-20T12:35:37;6.35;;;2.83;;
80707;SDS011;70222;49.204;-122.940;2023-07-20T12:38:04;5.13;;;2.78;;
80707;SDS011;70222;49.204;-122.940;2023-07-20T12:42:57;4.70;;;2.40;;
80707;SDS011;70222;49.204;-122.940;2023-07-20T12:45:23;5.70;;;2.95;;
80707;SDS011;70222;49.204;-122.940;2023-07-20T12:47:50;4.45;;;3.10;;
80707;SDS011;70222;49.204;-122.940;2023-07-20T12:50:17;3.92;;;2.65;;
80707;SDS011;70222;49.204;-122.940;2023-07-20T12:52:43;3.67;;;2.67;;
80707;SDS011;70222;49.204;-122.940;2023-07-20T12:55:09;4.80;;;2.90;;
80707;SDS011;70222;49.204;-122.940;2023-07-20T12:57:36;5.30;;;2.80;;
80707;SDS011;70222;49.204;-122.940;2023-07-20T13:00:03;5.00;;;2.83;;
80707;SDS011;70222;49.204;-122.940;2023-07-20T13:02:32;4.88;;;2.92;;
80707;SDS011;70222;49.204;-122.940;2023-07-20T13:05:00;5.63;;;2.88;;
80707;SDS011;70222;49.204;-122.940;2023-07-20T13:07:34;5.18;;;2.72;;
80707;SDS011;70222;49.204;-122.940;2023-07-20T13:10:02;4.45;;;2.67;;
80707;SDS011;70222;49.204;-122.940;2023-07-20T13:12:31;5.10;;;3.30;;
80707;SDS011;70222;49.204;-122.940;2023-07-20T13:14:58;4.90;;;2.83;;
80707;SDS011;70222;49.204;-122.940;2023-07-20T13:17:26;4.97;;;3.03;;
80707;SDS011;70222;49.204;-122.940;2023-07-20T13:19:52;5.10;;;3.00;;
80707;SDS011;70222;49.204;-122.940;2023-07-20T13:22:19;7.22;;;2.92;;
80707;SDS011;70222;49.204;-122.940;2023-07-20T13:24:46;5.72;;;2.78;;
80707;SDS011;70222;49.204;-122.940;2023-07-20T13:27:15;5.15;;;3.17;;
80707;SDS011;70222;49.204;-122.940;2023-07-20T13:29:42;5.53;;;3.13;;
80707;SDS011;70222;49.204;-122.940;2023-07-20T13:32:09;4.78;;;2.97;;
80707;SDS011;70222;49.204;-122.940;2023-07-20T13:34:35;5.50;;;3.22;;
80707;SDS011;70222;49.204;-122.940;2023-07-20T13:37:02;5.45;;;3.50;;
80707;SDS011;70222;49.204;-122.940;2023-07-20T13:39:28;5.93;;;4.03;;
80707;SDS011;70222;49.204;-122.940;2023-07-20T13:41:54;6.35;;;4.78;;
80707;SDS011;70222;49.204;-122.940;2023-07-20T13:44:20;6.00;;;3.40;;
80707;SDS011;70222;49.204;-122.940;2023-07-20T13:46:47;5.28;;;3.88;;
80707;SDS011;70222;49.204;-122.940;2023-07-20T13:51:40;7.32;;;3.50;;
80707;SDS011;70222;49.204;-122.940;2023-07-20T13:54:07;6.88;;;4.45;;
80707;SDS011;70222;49.204;-122.940;2023-07-20T13:56:33;5.78;;;4.03;;
80707;SDS011;70222;49.204;-122.940;2023-07-20T13:59:00;7.03;;;4.18;;
80707;SDS011;70222;49.204;-122.940;2023-07-20T14:01:26;4.75;;;3.30;;
80707;SDS011;70222;49.204;-122.940;2023-07-20T14:03:55;7.53;;;4.20;;
80707;SDS011;70222;49.204;-122.940;2023-07-20T14:06:24;7.82;;;3.50;;
80707;SDS011;70222;49.204;-122.940;2023-07-20T14:08:50;7.18;;;3.42;;
80707;SDS011;70222;49.204;-122.940;2023-07-20T14:11:18;4.43;;;3.33;;
80707;SDS011;70222;49.204;-122.940;2023-07-20T14:13:44;5.97;;;3.30;;
80707;SDS011;70222;49.204;-122.940;2023-07-20T14:16:10;6.60;;;3.75;;
80707;SDS011;70222;49.204;-122.940;2023-07-20T14:21:58;6.25;;;3.75;;
80707;SDS011;70222;49.204;-122.940;2023-07-20T14:24:25;5.40;;;4.03;;
80707;SDS011;70222;49.204;-122.940;2023-07-20T14:26:52;8.02;;;4.22;;
80707;SDS011;70222;49.204;-122.940;2023-07-20T14:29:20;7.47;;;3.88;;
80707;SDS011;70222;49.204;-122.940;2023-07-20T14:34:18;7.22;;;3.85;;
80707;SDS011;70222;49.204;-122.940;2023-07-20T14:36:45;5.13;;;4.05;;
80707;SDS011;70222;49.204;-122.940;2023-07-20T14:39:11;9.13;;;3.63;;
80707;SDS011;70222;49.204;-122.940;2023-07-20T14:41:37;4.38;;;2.90;;
80707;SDS011;70222;49.204;-122.940;2023-07-20T14:44:03;5.32;;;3.47;;
80707;SDS011;70222;49.204;-122.940;2023-07-20T14:46:29;8.43;;;4.13;;
80707;SDS011;70222;49.204;-122.940;2023-07-20T14:48:57;9.57;;;3.78;;
80707;SDS011;70222;49.204;-122.940;2023-07-20T14:51:23;7.72;;;4.25;;
80707;SDS011;70222;49.204;-122.940;2023-07-20T14:53:50;7.90;;;3.40;;
80707;SDS011;70222;49.204;-122.940;2023-07-20T14:56:16;4.75;;;3.22;;
80707;SDS011;70222;49.204;-122.940;2023-07-20T15:02:04;5.05;;;3.50;;
80707;SDS011;70222;49.204;-122.940;2023-07-20T15:04:30;6.50;;;3.80;;
80707;SDS011;70222;49.204;-122.940;2023-07-20T15:06:56;6.45;;;3.83;;
80707;SDS011;70222;49.204;-122.940;2023-07-20T15:09:22;5.20;;;3.15;;
80707;SDS011;70222;49.204;-122.940;2023-07-20T15:11:48;6.75;;;3.67;;
80707;SDS011;70222;49.204;-122.940;2023-07-20T15:14:14;7.60;;;3.20;;
80707;SDS011;70222;49.204;-122.940;2023-07-20T15:16:40;5.80;;;2.90;;
80707;SDS011;70222;49.204;-122.940;2023-07-20T15:19:08;6.55;;;3.10;;
80707;SDS011;70222;49.204;-122.940;2023-07-20T15:21:34;5.60;;;2.90;;
80707;SDS011;70222;49.204;-122.940;2023-07-20T15:24:00;4.78;;;2.72;;
80707;SDS011;70222;49.204;-122.940;2023-07-20T15:26:26;5.93;;;2.70;;
80707;SDS011;70222;49.204;-122.940;2023-07-20T15:28:52;7.15;;;3.40;;
80707;SDS011;70222;49.204;-122.940;2023-07-20T15:31:19;3.85;;;2.97;;
80707;SDS011;70222;49.204;-122.940;2023-07-20T15:33:45;4.43;;;2.60;;